I75

Osceola Municipal Airport

Osceola, Iowa, USA
METAR KI75 161935Z AUTO 34006KT 10SM SCT030 30/22 A3006 RMK AO2 T02950216
Observed Flight Rules
Jul-16 @ 19:35 UTC (30 minutes ago) Visual Flight Rules
Wind Visibility Clouds
340° at 6 knots 10 miles
  • Scattered at 3,000' AGL
Temperatures Readings
Current 30°C / 86°F
Dewpoint 22°C / 72°F
Humidity 62%
Altimeter 30.06" Hg
Pressure 1018 hPa
Elevation 339
METAR KI75 161935Z AUTO 34006KT 10SM SCT030 30/22 A3006 RMK AO2 T02950216
Observed Flight Rules
Jul-16 @ 19:35 UTC
(30 minutes ago)
VFR
Wind Visibility
340° at 6 knots 10 miles
Clouds
  • Scattered at 3,000' AGL
Temperature Dewpoint
30°C / 86°F 22°C / 72°F
Humidity Altimeter Pressure
62% 30.06" Hg 1018 hPa